createdAt,value
2018-11-04T00:01:05.845Z,36.53
2018-11-04T00:03:08.928Z,33.67
2018-11-04T00:05:11.987Z,34.10
2018-11-04T00:07:15.123Z,29.33
2018-11-04T00:09:18.080Z,26.33
2018-11-04T00:11:21.183Z,30.20
2018-11-04T00:13:24.361Z,26.57
2018-11-04T00:15:27.320Z,25.50
2018-11-04T00:17:30.294Z,28.53
2018-11-04T00:19:34.882Z,25.47
2018-11-04T00:21:37.981Z,29.70
2018-11-04T00:23:40.971Z,25.30
2018-11-04T00:25:44.015Z,29.87
2018-11-04T00:27:46.995Z,25.67
2018-11-04T00:29:50.257Z,33.53
2018-11-04T00:31:53.242Z,25.53
2018-11-04T00:33:56.200Z,25.83
2018-11-04T00:35:59.554Z,26.50
2018-11-04T00:38:04.274Z,28.30
2018-11-04T00:40:07.707Z,29.23
2018-11-04T00:42:10.840Z,28.43
2018-11-04T00:44:13.847Z,28.50
2018-11-04T00:46:16.994Z,28.53
2018-11-04T00:48:20.008Z,26.70
2018-11-04T00:50:23.111Z,28.73
2018-11-04T00:52:26.248Z,29.00
2018-11-04T00:54:29.207Z,32.80
2018-11-04T00:56:34.080Z,39.60
2018-11-04T00:58:37.123Z,29.97
2018-11-04T01:00:40.326Z,30.63
2018-11-04T01:02:44.366Z,26.93
2018-11-04T01:04:47.396Z,27.73
2018-11-04T01:06:50.653Z,32.30
2018-11-04T01:08:53.687Z,33.23
2018-11-04T01:10:57.156Z,29.90
2018-11-04T01:13:00.129Z,31.10
2018-11-04T01:15:05.939Z,30.17
2018-11-04T01:17:09.739Z,28.27
2018-11-04T01:19:12.737Z,28.40
2018-11-04T01:21:16.037Z,27.00
2018-11-04T01:23:18.905Z,27.90
2018-11-04T01:25:22.087Z,30.47
2018-11-04T01:27:25.176Z,35.23
2018-11-04T01:29:28.306Z,32.33
2018-11-04T01:31:32.850Z,35.83
2018-11-04T01:33:36.314Z,30.70
2018-11-04T01:35:39.284Z,26.03
2018-11-04T01:37:42.730Z,26.53
2018-11-04T01:39:45.680Z,32.80
2018-11-04T01:41:48.711Z,30.57
2018-11-04T01:43:51.766Z,28.70
2018-11-04T01:45:54.724Z,29.63
2018-11-04T01:47:57.733Z,27.00
2018-11-04T01:50:00.733Z,26.37
2018-11-04T01:52:05.454Z,28.87
2018-11-04T01:54:08.396Z,29.53
2018-11-04T01:56:11.679Z,27.23
2018-11-04T01:58:14.734Z,28.07
2018-11-04T02:00:17.783Z,29.67
2018-11-04T02:02:20.832Z,28.37
2018-11-04T02:04:23.892Z,26.17
2018-11-04T02:06:27.405Z,25.50
2018-11-04T02:08:30.439Z,30.43
2018-11-04T02:10:34.761Z,31.93
2018-11-04T02:12:38.319Z,26.17
2018-11-04T02:14:41.632Z,27.47
2018-11-04T02:16:44.615Z,36.10
2018-11-04T02:18:47.710Z,32.40
2018-11-04T02:20:52.013Z,33.23
2018-11-04T02:22:54.993Z,40.30
2018-11-04T02:24:58.192Z,35.80
2018-11-04T02:27:01.196Z,34.10
2018-11-04T02:29:05.522Z,31.00
2018-11-04T02:31:08.532Z,28.57
2018-11-04T02:33:11.567Z,30.87
2018-11-04T02:35:15.541Z,28.97
2018-11-04T02:37:18.630Z,29.30
2018-11-04T02:39:22.094Z,27.10
2018-11-04T02:41:25.090Z,27.03
2018-11-04T02:43:28.052Z,29.20
2018-11-04T02:45:31.022Z,27.13
2018-11-04T02:47:35.497Z,27.13
2018-11-04T02:49:38.514Z,29.43
2018-11-04T02:51:41.533Z,27.87
2018-11-04T02:53:44.544Z,33.03
2018-11-04T02:55:47.558Z,32.97
2018-11-04T02:57:50.844Z,32.67
2018-11-04T02:59:53.807Z,36.33
2018-11-04T03:01:56.871Z,36.63
2018-11-04T03:03:59.881Z,37.33
2018-11-04T03:06:04.582Z,34.50
2018-11-04T03:08:07.581Z,32.97
2018-11-04T03:10:12.335Z,31.47
2018-11-04T03:12:15.381Z,36.67
2018-11-04T03:14:18.379Z,34.43
2018-11-04T03:16:21.463Z,34.10
2018-11-04T03:18:24.453Z,43.73
2018-11-04T03:20:27.487Z,37.27
2018-11-04T03:22:30.616Z,36.17
2018-11-04T03:24:35.025Z,34.17
2018-11-04T03:26:38.078Z,38.93
2018-11-04T03:28:41.137Z,43.27
2018-11-04T03:30:44.139Z,42.03
2018-11-04T03:32:47.150Z,42.00
2018-11-04T03:34:50.155Z,47.50
2018-11-04T03:36:53.131Z,44.40
2018-11-04T03:38:56.185Z,42.50
2018-11-04T03:40:59.291Z,44.47
2018-11-04T03:43:03.836Z,51.20
2018-11-04T03:45:07.722Z,43.70
2018-11-04T03:47:10.705Z,43.63
2018-11-04T03:49:13.707Z,43.57
2018-11-04T03:51:16.978Z,46.87
2018-11-04T03:53:20.207Z,45.83
2018-11-04T03:55:23.371Z,43.83
2018-11-04T03:57:26.361Z,50.10
2018-11-04T03:59:29.470Z,45.10
2018-11-04T04:01:34.123Z,43.60
2018-11-04T04:03:37.136Z,53.57
2018-11-04T04:05:40.148Z,52.03
2018-11-04T04:07:43.142Z,47.00
2018-11-04T04:09:46.157Z,46.73
2018-11-04T04:11:49.289Z,55.10
2018-11-04T04:13:52.270Z,47.57
2018-11-04T04:15:55.223Z,50.30
2018-11-04T04:17:58.280Z,54.30
2018-11-04T04:20:01.323Z,48.43
2018-11-04T04:22:05.770Z,47.80
2018-11-04T04:24:08.778Z,44.37
2018-11-04T04:26:12.313Z,46.63
2018-11-04T04:28:15.364Z,58.83
2018-11-04T04:30:18.689Z,45.03
2018-11-04T04:32:21.706Z,52.20
2018-11-04T04:34:24.720Z,50.00
2018-11-04T04:36:27.755Z,48.07
2018-11-04T04:38:30.799Z,46.87
2018-11-04T04:40:35.235Z,47.10
2018-11-04T04:42:38.267Z,50.70
2018-11-04T04:44:41.255Z,50.50
2018-11-04T04:46:44.278Z,47.40
2018-11-04T04:48:47.280Z,45.50
2018-11-04T04:50:50.282Z,48.93
2018-11-04T04:52:53.311Z,50.30
2018-11-04T04:54:56.357Z,46.73
2018-11-04T04:56:59.656Z,46.10
2018-11-04T04:59:04.397Z,48.53
2018-11-04T05:01:07.453Z,45.60
2018-11-04T05:03:10.848Z,49.40
2018-11-04T05:05:13.880Z,45.43
2018-11-04T05:07:16.904Z,47.93
2018-11-04T05:09:20.190Z,48.77
2018-11-04T05:11:23.217Z,48.63
2018-11-04T05:13:26.254Z,48.20
2018-11-04T05:15:29.328Z,49.07
2018-11-04T05:17:33.936Z,48.63
2018-11-04T05:19:37.017Z,51.70
2018-11-04T05:21:40.165Z,41.03
2018-11-04T05:23:43.326Z,47.70
2018-11-04T05:25:46.808Z,52.33
2018-11-04T05:27:49.929Z,48.47
2018-11-04T05:29:52.926Z,44.53
2018-11-04T05:31:56.098Z,47.20
2018-11-04T05:33:59.114Z,49.87
2018-11-04T05:36:03.705Z,47.23
2018-11-04T05:38:07.259Z,51.27
2018-11-04T05:40:10.325Z,48.50
2018-11-04T05:42:13.407Z,51.60
2018-11-04T05:44:16.414Z,46.57
2018-11-04T05:46:19.498Z,48.20
2018-11-04T05:48:22.527Z,46.60
2018-11-04T05:50:25.587Z,52.47
2018-11-04T05:52:28.779Z,46.67
2018-11-04T05:54:33.643Z,46.13
2018-11-04T05:56:36.647Z,52.37
2018-11-04T05:58:39.727Z,52.60
2018-11-04T06:00:42.831Z,48.77
2018-11-04T06:02:45.821Z,48.40
2018-11-04T06:04:48.927Z,47.43
2018-11-04T06:06:53.065Z,45.90
2018-11-04T06:08:56.075Z,46.83
2018-11-04T06:10:59.068Z,48.07
2018-11-04T06:13:03.994Z,47.67
2018-11-04T06:15:07.925Z,50.33
2018-11-04T06:17:10.948Z,49.90
2018-11-04T06:19:14.481Z,51.90
2018-11-04T06:21:17.483Z,44.70
2018-11-04T06:23:20.487Z,43.73
2018-11-04T06:25:23.878Z,52.00
2018-11-04T06:27:27.002Z,49.23
2018-11-04T06:29:29.986Z,47.97
2018-11-04T06:31:34.783Z,54.53
2018-11-04T06:33:38.073Z,51.80
2018-11-04T06:35:41.159Z,52.13
2018-11-04T06:37:44.325Z,52.43
2018-11-04T06:39:47.417Z,46.80
2018-11-04T06:41:50.463Z,48.33
2018-11-04T06:43:53.498Z,48.50
2018-11-04T06:45:56.539Z,53.10
2018-11-04T06:47:59.698Z,50.90
2018-11-04T06:50:04.302Z,56.83
2018-11-04T06:52:07.366Z,49.27
2018-11-04T06:54:10.618Z,47.47
2018-11-04T06:56:13.880Z,49.03
2018-11-04T06:58:17.058Z,55.40
2018-11-04T07:00:20.026Z,55.53
2018-11-04T07:02:23.041Z,50.23
2018-11-04T07:04:27.842Z,52.97
2018-11-04T07:06:30.859Z,51.20
2018-11-04T07:08:35.876Z,56.57
2018-11-04T07:10:39.281Z,52.30
2018-11-04T07:12:42.585Z,56.77
2018-11-04T07:14:45.595Z,55.60
2018-11-04T07:16:48.673Z,53.97
2018-11-04T07:18:52.420Z,58.80
2018-11-04T07:20:55.487Z,58.30
2018-11-04T07:22:58.573Z,57.10
2018-11-04T07:25:01.587Z,53.50
2018-11-04T07:27:06.625Z,52.93
2018-11-04T07:29:10.149Z,57.77
2018-11-04T07:31:13.188Z,57.60
2018-11-04T07:33:16.187Z,58.60
2018-11-04T07:35:19.256Z,60.57
2018-11-04T07:37:22.340Z,62.97
2018-11-04T07:39:25.607Z,57.80
2018-11-04T07:41:28.715Z,54.23
2018-11-04T07:43:33.381Z,60.67
2018-11-04T07:45:36.395Z,63.43
2018-11-04T07:47:39.490Z,56.60
2018-11-04T07:49:42.730Z,53.27
2018-11-04T07:51:45.694Z,71.43
2018-11-04T07:53:48.716Z,56.10
2018-11-04T07:55:51.747Z,49.63
2018-11-04T07:57:54.731Z,56.50
2018-11-04T07:59:57.756Z,56.17
2018-11-04T08:02:00.775Z,57.87
2018-11-04T08:04:05.403Z,52.63
2018-11-04T08:06:08.399Z,57.83
2018-11-04T08:08:11.414Z,55.63
2018-11-04T08:10:14.449Z,55.03
2018-11-04T08:12:17.482Z,60.33
2018-11-04T08:14:20.484Z,54.93
2018-11-04T08:16:23.486Z,61.57
2018-11-04T08:18:26.787Z,58.33
2018-11-04T08:20:29.787Z,60.80
2018-11-04T08:22:34.437Z,57.47
2018-11-04T08:24:37.802Z,61.40
2018-11-04T08:26:40.790Z,56.87
2018-11-04T08:28:43.825Z,53.57
2018-11-04T08:30:46.851Z,57.00
2018-11-04T08:32:49.838Z,54.47
2018-11-04T08:34:53.057Z,56.00
2018-11-04T08:36:56.011Z,60.33
2018-11-04T08:38:59.055Z,55.20
2018-11-04T08:41:03.370Z,51.93
2018-11-04T08:43:06.456Z,53.77
2018-11-04T08:45:09.587Z,52.93
2018-11-04T08:47:12.616Z,58.27
2018-11-04T08:49:15.548Z,66.03
2018-11-04T08:51:18.571Z,55.87
2018-11-04T08:53:21.660Z,60.63
2018-11-04T08:55:24.623Z,58.23
2018-11-04T08:57:27.640Z,60.30
2018-11-04T08:59:30.675Z,62.90
2018-11-04T09:01:34.996Z,55.63
2018-11-04T09:03:38.060Z,52.80
2018-11-04T09:05:41.111Z,53.80
2018-11-04T09:07:44.151Z,53.03
2018-11-04T09:09:47.202Z,48.47
2018-11-04T09:11:50.234Z,55.63
2018-11-04T09:13:53.246Z,53.70
2018-11-04T09:15:56.274Z,57.13
2018-11-04T09:17:59.207Z,51.67
2018-11-04T09:20:03.701Z,50.93
2018-11-04T09:22:07.096Z,60.67
2018-11-04T09:24:10.118Z,60.10
2018-11-04T09:26:14.278Z,58.30
2018-11-04T09:28:17.285Z,53.20
2018-11-04T09:30:20.332Z,55.20
2018-11-04T09:32:23.354Z,55.20
2018-11-04T09:34:26.467Z,53.67
2018-11-04T09:36:29.624Z,51.17
2018-11-04T09:38:34.603Z,61.40
2018-11-04T09:40:37.634Z,54.70
2018-11-04T09:42:40.800Z,61.37
2018-11-04T09:44:44.202Z,54.13
2018-11-04T09:46:47.208Z,51.63
2018-11-04T09:48:50.194Z,52.90
2018-11-04T09:50:53.201Z,56.23
2018-11-04T09:52:56.231Z,53.40
2018-11-04T09:54:59.232Z,59.30
2018-11-04T09:57:03.610Z,53.20
2018-11-04T09:59:06.679Z,53.57
2018-11-04T10:01:09.664Z,54.73
2018-11-04T10:03:12.687Z,54.90
2018-11-04T10:05:15.644Z,48.63
2018-11-04T10:07:18.741Z,47.30
2018-11-04T10:09:21.755Z,48.67
2018-11-04T10:11:24.761Z,48.23
2018-11-04T10:13:27.889Z,48.00
2018-11-04T10:15:30.812Z,50.30
2018-11-04T10:17:35.661Z,51.67
2018-11-04T10:19:39.113Z,48.80
2018-11-04T10:21:42.097Z,46.63
2018-11-04T10:23:45.152Z,49.20
2018-11-04T10:25:48.198Z,46.73
2018-11-04T10:27:51.215Z,44.60
2018-11-04T10:29:54.282Z,46.03
2018-11-04T10:31:57.255Z,46.07
2018-11-04T10:34:00.368Z,42.00
2018-11-04T10:36:05.091Z,41.63
2018-11-04T10:38:08.127Z,48.30
2018-11-04T10:40:11.867Z,49.27
2018-11-04T10:42:15.047Z,48.80
2018-11-04T10:44:18.635Z,41.10
2018-11-04T10:46:21.752Z,45.27
2018-11-04T10:48:24.862Z,45.27
2018-11-04T10:50:28.228Z,46.70
2018-11-04T10:52:31.293Z,46.80
2018-11-04T10:54:35.759Z,45.90
2018-11-04T10:56:38.941Z,43.73
2018-11-04T10:58:41.972Z,49.10
2018-11-04T11:00:50.659Z,43.23
2018-11-04T11:02:53.685Z,39.23
2018-11-04T11:04:56.752Z,40.97
2018-11-04T11:06:59.832Z,44.27
2018-11-04T11:09:04.407Z,41.70
2018-11-04T11:11:07.461Z,47.47
2018-11-04T11:13:10.480Z,46.70
2018-11-04T11:15:13.599Z,43.27
2018-11-04T11:17:16.573Z,45.40
2018-11-04T11:19:19.556Z,45.40
2018-11-04T11:21:22.617Z,47.93
2018-11-04T11:23:25.637Z,42.97
2018-11-04T11:25:28.703Z,42.40
2018-11-04T11:27:34.231Z,43.80
2018-11-04T11:29:37.227Z,46.00
2018-11-04T11:31:40.715Z,36.53
2018-11-04T11:33:43.960Z,44.83
2018-11-04T11:35:47.049Z,45.37
2018-11-04T11:37:50.087Z,42.47
2018-11-04T11:39:53.376Z,44.03
2018-11-04T11:41:56.994Z,48.57
2018-11-04T11:43:59.979Z,47.30
2018-11-04T11:46:05.610Z,44.37
2018-11-04T11:48:09.437Z,46.13
2018-11-04T11:50:12.620Z,45.50
2018-11-04T11:52:16.052Z,45.43
2018-11-04T11:54:19.945Z,48.40
2018-11-04T11:56:24.020Z,46.30
2018-11-04T11:58:28.236Z,49.90
2018-11-04T12:00:33.623Z,47.83
2018-11-04T12:02:38.142Z,46.37
2018-11-04T12:04:42.459Z,45.17
2018-11-04T12:06:46.181Z,50.90
2018-11-04T12:08:50.075Z,50.90
2018-11-04T12:10:53.968Z,54.00
2018-11-04T12:12:58.045Z,43.87
2018-11-04T12:15:03.867Z,45.03
2018-11-04T12:17:07.727Z,48.57
2018-11-04T12:19:11.964Z,48.10
2018-11-04T12:21:15.821Z,49.73
2018-11-04T12:23:19.764Z,52.97
2018-11-04T12:25:23.832Z,52.20
2018-11-04T12:27:27.698Z,55.00
2018-11-04T12:29:33.379Z,51.70
2018-11-04T12:31:37.201Z,57.67
2018-11-04T12:33:41.316Z,46.60
2018-11-04T12:35:45.252Z,46.20
2018-11-04T12:37:49.138Z,51.13
2018-11-04T12:39:53.026Z,47.83
2018-11-04T12:41:57.076Z,61.30
2018-11-04T12:44:00.970Z,49.57
2018-11-04T12:46:06.039Z,55.00
2018-11-04T12:48:09.830Z,56.43
2018-11-04T12:50:14.070Z,49.03
2018-11-04T12:52:18.157Z,52.00
2018-11-04T12:54:22.193Z,50.10
2018-11-04T12:56:26.169Z,50.80
2018-11-04T12:58:29.193Z,48.67
2018-11-04T13:00:33.792Z,51.47
2018-11-04T13:02:36.881Z,54.13
2018-11-04T13:04:39.909Z,56.63
2018-11-04T13:06:42.900Z,53.40
2018-11-04T13:08:45.895Z,50.93
2018-11-04T13:10:48.916Z,48.60
2018-11-04T13:12:51.937Z,58.40
2018-11-04T13:14:55.003Z,52.10
2018-11-04T13:16:58.041Z,48.87
2018-11-04T13:19:01.141Z,60.17
2018-11-04T13:21:06.095Z,53.30
2018-11-04T13:23:09.131Z,62.73
2018-11-04T13:25:12.150Z,54.40
2018-11-04T13:27:15.177Z,50.40
2018-11-04T13:29:18.336Z,58.07
2018-11-04T13:31:21.468Z,52.27
2018-11-04T13:33:24.528Z,56.33
2018-11-04T13:35:27.511Z,57.80
2018-11-04T13:37:30.632Z,56.57
2018-11-04T13:39:35.023Z,56.43
2018-11-04T13:41:38.345Z,57.93
2018-11-04T13:43:41.379Z,54.53
2018-11-04T13:45:44.483Z,51.33
2018-11-04T13:47:47.509Z,48.90
2018-11-04T13:49:50.799Z,53.73
2018-11-04T13:51:53.892Z,48.33
2018-11-04T13:53:56.927Z,55.13
2018-11-04T13:55:59.950Z,55.80
2018-11-04T13:58:03.426Z,55.70
2018-11-04T14:00:11.094Z,52.90
2018-11-04T14:02:14.157Z,56.63
2018-11-04T14:04:17.156Z,57.60
2018-11-04T14:06:20.205Z,62.33
2018-11-04T14:08:23.653Z,66.33
2018-11-04T14:10:26.681Z,57.77
2018-11-04T14:12:30.271Z,60.00
2018-11-04T14:14:35.411Z,58.07
2018-11-04T14:16:38.550Z,56.80
2018-11-04T14:18:41.796Z,61.83
2018-11-04T14:20:44.889Z,59.07
2018-11-04T14:22:48.010Z,60.43
2018-11-04T14:24:51.113Z,55.37
2018-11-04T14:26:54.285Z,61.67
2018-11-04T14:28:57.359Z,84.90
2018-11-04T14:31:00.546Z,73.00
2018-11-04T14:33:05.198Z,55.10
2018-11-04T14:35:09.261Z,57.27
2018-11-04T14:37:12.623Z,61.93
2018-11-04T14:39:15.574Z,59.87
2018-11-04T14:41:18.663Z,63.53
2018-11-04T14:43:22.393Z,55.90
2018-11-04T14:45:25.419Z,65.83
2018-11-04T14:47:28.490Z,59.20
2018-11-04T14:49:36.246Z,58.70
2018-11-04T14:51:39.693Z,62.70
2018-11-04T14:53:42.931Z,69.00
2018-11-04T14:55:46.190Z,66.33
2018-11-04T14:57:49.206Z,63.67
2018-11-04T14:59:52.328Z,65.10
2018-11-04T15:01:55.504Z,59.10
2018-11-04T15:03:58.485Z,68.03
2018-11-04T15:06:03.537Z,61.07
2018-11-04T15:08:06.720Z,68.53
2018-11-04T15:10:11.938Z,61.70
2018-11-04T15:12:15.038Z,68.47
2018-11-04T15:14:18.027Z,61.67
2018-11-04T15:16:21.279Z,69.33
2018-11-04T15:18:24.377Z,68.40
2018-11-04T15:20:27.619Z,63.77
2018-11-04T15:22:30.688Z,68.50
2018-11-04T15:24:35.529Z,74.53
2018-11-04T15:26:38.728Z,65.37
2018-11-04T15:28:42.434Z,72.03
2018-11-04T15:30:45.512Z,68.53
2018-11-04T15:32:48.573Z,71.23
2018-11-04T15:34:51.771Z,73.23
2018-11-04T15:36:54.691Z,68.53
2018-11-04T15:38:57.744Z,80.73
2018-11-04T15:41:00.853Z,70.30
2018-11-04T15:43:05.554Z,78.67
2018-11-04T15:45:10.264Z,66.97
2018-11-04T15:47:13.299Z,72.13
2018-11-04T15:49:16.359Z,70.27
2018-11-04T15:51:19.359Z,76.00
2018-11-04T15:53:22.695Z,69.80
2018-11-04T15:55:26.684Z,83.70
2018-11-04T15:57:30.707Z,68.30
2018-11-04T15:59:35.995Z,68.60
2018-11-04T16:01:39.073Z,91.77
2018-11-04T16:03:42.843Z,69.30
2018-11-04T16:05:45.928Z,77.40
2018-11-04T16:07:50.119Z,74.73
2018-11-04T16:09:53.191Z,77.87
2018-11-04T16:11:56.278Z,75.90
2018-11-04T16:13:59.305Z,74.80
2018-11-04T16:16:03.732Z,73.17
2018-11-04T16:18:06.844Z,72.40
2018-11-04T16:20:11.150Z,81.97
2018-11-04T16:22:14.467Z,80.43
2018-11-04T16:24:17.480Z,79.63
2018-11-04T16:26:20.619Z,89.73
2018-11-04T16:28:23.695Z,71.77
2018-11-04T16:30:26.686Z,72.17
2018-11-04T16:32:29.707Z,86.67
2018-11-04T16:34:34.068Z,87.23
2018-11-04T16:36:37.056Z,73.07
2018-11-04T16:38:40.089Z,70.63
2018-11-04T16:40:43.178Z,84.57
2018-11-04T16:42:46.208Z,76.47
2018-11-04T16:44:49.208Z,85.20
2018-11-04T16:46:52.267Z,80.40
2018-11-04T16:48:55.327Z,84.87
2018-11-04T16:50:58.439Z,80.37
2018-11-04T16:53:01.543Z,75.47
2018-11-04T16:55:06.470Z,84.17
2018-11-04T16:57:10.275Z,76.50
2018-11-04T16:59:13.759Z,75.93
2018-11-04T17:01:16.752Z,82.23
2018-11-04T17:03:19.773Z,79.20
2018-11-04T17:05:22.938Z,80.97
2018-11-04T17:07:26.106Z,83.83
2018-11-04T17:09:29.929Z,89.80
2018-11-04T17:11:34.591Z,88.90
2018-11-04T17:13:37.663Z,83.43
2018-11-04T17:15:40.733Z,78.90
2018-11-04T17:17:44.838Z,76.43
2018-11-04T17:19:48.002Z,72.20
2018-11-04T17:21:51.060Z,85.03
2018-11-04T17:23:54.111Z,68.83
2018-11-04T17:25:57.248Z,77.20
2018-11-04T17:28:00.576Z,75.03
2018-11-04T17:30:08.615Z,86.03
2018-11-04T17:32:11.650Z,81.47
2018-11-04T17:34:14.816Z,78.63
2018-11-04T17:36:17.969Z,66.60
2018-11-04T17:38:20.980Z,67.00
2018-11-04T17:40:24.054Z,69.23
2018-11-04T17:42:27.070Z,74.50
2018-11-04T17:44:30.232Z,71.53
2018-11-04T17:46:35.138Z,74.30
2018-11-04T17:48:38.276Z,63.60
2018-11-04T17:50:41.423Z,67.37
2018-11-04T17:52:44.695Z,72.67
2018-11-04T17:54:47.827Z,65.97
2018-11-04T17:56:50.875Z,72.37
2018-11-04T17:58:55.489Z,68.20
2018-11-04T18:00:58.560Z,61.93
2018-11-04T18:03:02.831Z,64.73
2018-11-04T18:05:07.081Z,64.60
2018-11-04T18:07:10.133Z,65.20
2018-11-04T18:09:13.554Z,69.70
2018-11-04T18:11:16.598Z,65.13
2018-11-04T18:13:19.599Z,67.50
2018-11-04T18:15:23.024Z,72.03
2018-11-04T18:17:26.015Z,66.27
2018-11-04T18:19:29.260Z,66.63
2018-11-04T18:21:34.078Z,68.77
2018-11-04T18:23:37.188Z,63.27
2018-11-04T18:25:40.263Z,67.20
2018-11-04T18:27:43.557Z,66.97
2018-11-04T18:29:46.587Z,69.57
2018-11-04T18:31:50.572Z,56.40
2018-11-04T18:33:54.045Z,62.13
2018-11-04T18:35:57.056Z,62.90
2018-11-04T18:38:00.103Z,64.17
2018-11-04T18:40:05.899Z,64.83
2018-11-04T18:42:09.249Z,63.33
2018-11-04T18:44:12.241Z,62.13
2018-11-04T18:46:15.450Z,66.37
2018-11-04T18:48:18.521Z,62.20
2018-11-04T18:50:21.717Z,62.93
2018-11-04T18:52:24.747Z,64.50
2018-11-04T18:54:27.928Z,66.07
2018-11-04T18:56:31.240Z,68.20
2018-11-04T18:58:35.620Z,66.03
2018-11-04T19:00:38.734Z,69.57
2018-11-04T19:02:41.908Z,59.33
2018-11-04T19:04:45.024Z,65.30
2018-11-04T19:06:48.028Z,59.40
2018-11-04T19:08:51.129Z,73.83
2018-11-04T19:10:54.164Z,71.07
2018-11-04T19:12:57.328Z,68.87
2018-11-04T19:15:00.375Z,64.53
2018-11-04T19:17:04.730Z,66.03
2018-11-04T19:19:07.871Z,72.65
2018-11-04T19:21:10.939Z,69.20
2018-11-04T19:23:14.067Z,63.73
2018-11-04T19:25:17.155Z,64.93
2018-11-04T19:27:20.149Z,65.60
2018-11-04T19:29:23.163Z,60.10
2018-11-04T19:31:26.385Z,68.60
2018-11-04T19:33:29.315Z,68.13
2018-11-04T19:35:33.932Z,68.27
2018-11-04T19:37:37.261Z,69.53
2018-11-04T19:39:40.352Z,73.17
2018-11-04T19:41:43.414Z,68.90
2018-11-04T19:43:46.591Z,62.83
2018-11-04T19:45:49.876Z,83.30
2018-11-04T19:47:53.024Z,64.50
2018-11-04T19:49:56.076Z,66.43
2018-11-04T19:51:59.072Z,70.27
2018-11-04T19:54:03.627Z,59.60
2018-11-04T19:56:07.275Z,67.03
2018-11-04T19:58:10.286Z,70.67
2018-11-04T20:00:13.661Z,59.43
2018-11-04T20:02:16.793Z,59.73
2018-11-04T20:04:19.803Z,59.30
2018-11-04T20:06:22.897Z,70.87
2018-11-04T20:08:26.036Z,58.87
2018-11-04T20:10:29.190Z,63.23
2018-11-04T20:12:37.851Z,58.47
2018-11-04T20:14:40.882Z,59.10
2018-11-04T20:16:44.751Z,64.13
2018-11-04T20:18:53.360Z,63.57
2018-11-04T20:20:56.348Z,55.67
2018-11-04T20:22:59.430Z,57.80
2018-11-04T20:25:08.163Z,58.60
2018-11-04T20:27:11.317Z,58.53
2018-11-04T20:29:14.679Z,60.47
2018-11-04T20:31:23.380Z,60.90
2018-11-04T20:33:26.440Z,59.60
2018-11-04T20:35:29.478Z,61.23
2018-11-04T20:37:36.315Z,60.07
2018-11-04T20:39:44.908Z,50.37
2018-11-04T20:41:47.916Z,53.90
2018-11-04T20:43:50.900Z,55.60
2018-11-04T20:45:54.017Z,53.03
2018-11-04T20:48:02.795Z,58.60
2018-11-04T20:50:12.106Z,53.20
2018-11-04T20:52:15.535Z,56.07
2018-11-04T20:54:18.615Z,59.33
2018-11-04T20:56:27.350Z,50.03
2018-11-04T20:58:30.444Z,62.33
2018-11-04T21:00:34.988Z,59.67
2018-11-04T21:02:39.397Z,52.77
2018-11-04T21:04:42.226Z,59.23
2018-11-04T21:06:45.224Z,55.20
2018-11-04T21:08:48.278Z,56.00
2018-11-04T21:10:51.289Z,54.30
2018-11-04T21:12:54.315Z,61.53
2018-11-04T21:14:57.496Z,57.73
2018-11-04T21:17:00.583Z,57.20
2018-11-04T21:19:05.289Z,51.90
2018-11-04T21:21:08.658Z,64.53
2018-11-04T21:23:11.708Z,57.57
2018-11-04T21:25:14.773Z,60.73
2018-11-04T21:27:17.760Z,60.33
2018-11-04T21:29:21.220Z,56.67
2018-11-04T21:31:24.351Z,53.57
2018-11-04T21:33:27.288Z,68.20
2018-11-04T21:35:30.696Z,65.27
2018-11-04T21:37:35.111Z,56.50
2018-11-04T21:39:38.137Z,64.90
2018-11-04T21:41:41.226Z,58.63
2018-11-04T21:43:44.308Z,60.40
2018-11-04T21:45:47.246Z,59.00
2018-11-04T21:47:50.321Z,51.43
2018-11-04T21:49:53.482Z,62.70
2018-11-04T21:51:56.666Z,64.23
2018-11-04T21:53:59.722Z,58.20
2018-11-04T21:56:04.254Z,57.83
2018-11-04T21:58:12.476Z,69.30
2018-11-04T22:00:16.601Z,59.30
2018-11-04T22:02:19.832Z,62.90
2018-11-04T22:04:22.881Z,58.93
2018-11-04T22:06:25.860Z,69.53
2018-11-04T22:08:29.276Z,58.87
2018-11-04T22:10:33.036Z,70.80
2018-11-04T22:12:35.995Z,62.47
2018-11-04T22:14:39.051Z,64.10
2018-11-04T22:16:42.199Z,67.50
2018-11-04T22:18:45.579Z,63.47
2018-11-04T22:20:48.587Z,65.83
2018-11-04T22:22:51.659Z,58.83
2018-11-04T22:24:54.683Z,62.33
2018-11-04T22:26:57.706Z,70.83
2018-11-04T22:29:01.312Z,60.73
2018-11-04T22:31:05.917Z,63.60
2018-11-04T22:33:08.963Z,74.00
2018-11-04T22:35:12.134Z,58.53
2018-11-04T22:37:15.136Z,64.17
2018-11-04T22:39:18.157Z,62.37
2018-11-04T22:41:21.147Z,66.90
2018-11-04T22:43:24.155Z,62.73
2018-11-04T22:45:27.799Z,74.30
2018-11-04T22:47:30.887Z,69.90
2018-11-04T22:49:35.727Z,66.80
2018-11-04T22:51:38.716Z,63.27
2018-11-04T22:53:42.000Z,63.93
2018-11-04T22:55:45.043Z,65.30
2018-11-04T22:57:48.064Z,72.47
2018-11-04T22:59:51.122Z,73.03
2018-11-04T23:01:54.157Z,66.90
2018-11-04T23:03:57.742Z,69.50
2018-11-04T23:06:05.469Z,62.90
2018-11-04T23:08:09.062Z,78.30
2018-11-04T23:10:12.089Z,69.60
2018-11-04T23:12:15.069Z,60.27
2018-11-04T23:14:18.233Z,74.77
2018-11-04T23:16:21.243Z,74.23
2018-11-04T23:18:24.282Z,70.87
2018-11-04T23:20:27.254Z,77.20
2018-11-04T23:22:30.549Z,66.90
2018-11-04T23:24:34.783Z,73.67
2018-11-04T23:26:37.784Z,79.83
2018-11-04T23:28:40.912Z,78.17
2018-11-04T23:30:44.404Z,75.57
2018-11-04T23:32:47.787Z,86.40
2018-11-04T23:34:50.812Z,92.73
2018-11-04T23:36:53.850Z,83.43
2018-11-04T23:38:56.847Z,75.87
2018-11-04T23:40:59.863Z,81.17
2018-11-04T23:43:04.346Z,77.23
2018-11-04T23:45:09.246Z,77.97
2018-11-04T23:47:12.255Z,77.10
2018-11-04T23:49:15.231Z,85.37
2018-11-04T23:51:18.229Z,81.30
2018-11-04T23:53:21.563Z,93.73
2018-11-04T23:55:24.581Z,79.47
2018-11-04T23:57:27.543Z,80.17
2018-11-04T23:59:30.946Z,91.40
